HER weather

Heraklion International Nikos Kazantzakis Airport
Heraklion, Irakleion, Greece

Public forecast

Using degrees Celsius for public forecast. Weather courtesy of forecast.io.

Current aviation weather report (METAR) for Heraklion International Nikos Kazantzakis Airport

Retrieved 2019/12/12 08:20 UTC (0 seconds ago):

LGIR 120820Z 19012KT 9999 FEW025 SCT080 16/08 Q1004 NOSIG

Aviation forecast (TAF) for Heraklion International Nikos Kazantzakis Airport

Retrieved 2019/12/12 06:12 UTC (2 hours ago):

TAF LGIR 120500Z 1206/1306 18010KT 9999 FEW025 SCT080 PROB30 TEMPO 1206/1209 5000 RA FEW018TCU BKN025 OVC070